createdAt,value
2024-03-05T00:00:26.567Z,51.42
2024-03-05T00:02:52.964Z,54.45
2024-03-05T00:05:19.767Z,53.17
2024-03-05T00:07:46.802Z,51.10
2024-03-05T00:10:13.991Z,57.22
2024-03-05T00:12:40.766Z,48.42
2024-03-05T00:15:07.742Z,60.80
2024-03-05T00:17:34.171Z,47.90
2024-03-05T00:20:00.710Z,51.67
2024-03-05T00:22:27.201Z,57.75
2024-03-05T00:24:53.698Z,53.28
2024-03-05T00:27:20.211Z,49.42
2024-03-05T00:29:46.836Z,59.42
2024-03-05T00:32:13.262Z,56.90
2024-03-05T00:34:39.836Z,57.25
2024-03-05T00:37:07.074Z,56.63
2024-03-05T00:39:33.692Z,56.30
2024-03-05T00:42:00.086Z,64.32
2024-03-05T00:44:27.690Z,61.30
2024-03-05T00:46:54.551Z,62.53
2024-03-05T00:49:21.686Z,73.18
2024-03-05T00:51:48.653Z,64.00
2024-03-05T00:54:15.392Z,66.68
2024-03-05T00:56:41.993Z,60.88
2024-03-05T00:59:08.420Z,56.47
2024-03-05T01:01:35.784Z,53.30
2024-03-05T01:04:02.347Z,57.83
2024-03-05T01:06:28.884Z,58.92
2024-03-05T01:08:55.315Z,54.75
2024-03-05T01:11:21.756Z,51.70
2024-03-05T01:13:48.269Z,62.20
2024-03-05T01:16:14.727Z,66.57
2024-03-05T01:18:42.309Z,56.90
2024-03-05T01:21:08.819Z,46.35
2024-03-05T01:23:35.316Z,53.88
2024-03-05T01:26:02.070Z,54.22
2024-03-05T01:28:32.186Z,62.15
2024-03-05T01:31:00.759Z,51.85
2024-03-05T01:33:27.587Z,59.08
2024-03-05T01:35:54.218Z,58.25
2024-03-05T01:38:21.503Z,56.85
2024-03-05T01:40:48.114Z,46.42
2024-03-05T01:43:15.931Z,54.58
2024-03-05T01:45:43.678Z,58.67
2024-03-05T01:48:12.265Z,61.63
2024-03-05T01:50:39.013Z,50.35
2024-03-05T01:53:13.379Z,48.40
2024-03-05T01:55:40.361Z,49.53
2024-03-05T01:58:08.925Z,55.70
2024-03-05T02:00:37.657Z,52.15
2024-03-05T02:03:05.243Z,56.63
2024-03-05T02:05:33.742Z,60.85
2024-03-05T02:08:00.248Z,56.08
2024-03-05T02:10:28.012Z,57.83
2024-03-05T02:12:54.442Z,54.17
2024-03-05T02:15:22.026Z,53.90
2024-03-05T02:17:48.759Z,50.97
2024-03-05T02:20:15.324Z,55.95
2024-03-05T02:22:42.759Z,61.17
2024-03-05T02:25:10.664Z,57.78
2024-03-05T02:27:38.062Z,59.35
2024-03-05T02:30:11.293Z,53.83
2024-03-05T02:32:41.885Z,56.22
2024-03-05T02:35:09.646Z,54.13
2024-03-05T02:37:40.029Z,56.50
2024-03-05T02:40:11.094Z,57.83
2024-03-05T02:42:38.034Z,61.33
2024-03-05T02:45:08.460Z,55.65
2024-03-05T02:47:43.561Z,69.63
2024-03-05T02:50:11.549Z,47.92
2024-03-05T02:52:39.957Z,60.78
2024-03-05T02:55:10.602Z,51.38
2024-03-05T02:57:42.216Z,52.25
2024-03-05T03:00:10.105Z,55.13
2024-03-05T03:02:36.768Z,41.53
2024-03-05T03:05:03.921Z,68.78
2024-03-05T03:07:30.380Z,53.30
2024-03-05T03:09:56.885Z,58.83
2024-03-05T03:12:23.353Z,74.30
2024-03-05T03:14:49.806Z,72.00
2024-03-05T03:17:16.494Z,77.47
2024-03-05T03:19:44.040Z,69.28
2024-03-05T03:22:10.612Z,65.80
2024-03-05T03:24:37.132Z,65.35
2024-03-05T03:27:03.701Z,64.13
2024-03-05T03:29:30.096Z,67.95
2024-03-05T03:31:57.214Z,67.57
2024-03-05T03:34:23.894Z,60.78
2024-03-05T03:36:50.441Z,61.85
2024-03-05T03:39:24.233Z,63.78
2024-03-05T03:41:55.847Z,62.75
2024-03-05T03:44:23.282Z,65.15
2024-03-05T03:46:50.547Z,71.30
2024-03-05T03:49:21.564Z,71.05
2024-03-05T03:51:48.616Z,57.90
2024-03-05T03:54:15.049Z,67.15
2024-03-05T03:56:41.825Z,70.07
2024-03-05T03:59:08.851Z,62.40
2024-03-05T04:01:37.367Z,71.75
2024-03-05T04:04:04.067Z,61.45
2024-03-05T04:06:31.853Z,65.68
2024-03-05T04:08:58.368Z,70.32
2024-03-05T04:11:24.842Z,77.43
2024-03-05T04:13:51.268Z,77.90
2024-03-05T04:16:17.690Z,62.65
2024-03-05T04:18:46.739Z,62.33
2024-03-05T04:21:13.727Z,83.53
2024-03-05T04:23:40.653Z,61.92
2024-03-05T04:26:14.261Z,71.78
2024-03-05T04:28:50.098Z,71.07
2024-03-05T04:31:18.765Z,70.40
2024-03-05T04:33:47.993Z,79.38
2024-03-05T04:36:17.461Z,75.82
2024-03-05T04:38:44.715Z,69.22
2024-03-05T04:41:12.263Z,66.93
2024-03-05T04:43:44.564Z,74.25
2024-03-05T04:46:14.330Z,77.70
2024-03-05T04:48:40.767Z,70.93
2024-03-05T04:51:11.103Z,72.80
2024-03-05T04:53:37.813Z,68.80
2024-03-05T04:56:04.602Z,72.88
2024-03-05T04:58:31.285Z,64.95
2024-03-05T05:00:57.777Z,76.47
2024-03-05T05:03:24.638Z,66.22
2024-03-05T05:05:51.232Z,77.30
2024-03-05T05:08:20.270Z,77.55
2024-03-05T05:10:48.876Z,81.28
2024-03-05T05:13:15.407Z,73.32
2024-03-05T05:15:41.915Z,78.43
2024-03-05T05:18:08.579Z,81.32
2024-03-05T05:20:35.068Z,81.75
2024-03-05T05:23:01.500Z,76.78
2024-03-05T05:25:29.363Z,71.32
2024-03-05T05:27:55.824Z,71.57
2024-03-05T05:30:23.801Z,65.10
2024-03-05T05:32:50.559Z,71.60
2024-03-05T05:35:17.930Z,71.05
2024-03-05T05:37:45.582Z,60.90
2024-03-05T05:40:12.493Z,60.90
2024-03-05T05:42:39.491Z,63.90
2024-03-05T05:45:15.805Z,65.40
2024-03-05T05:47:50.155Z,72.07
2024-03-05T05:50:19.851Z,69.88
2024-03-05T05:52:49.539Z,70.03
2024-03-05T05:55:21.540Z,72.43
2024-03-05T05:57:49.078Z,63.53
2024-03-05T06:00:35.871Z,70.32
2024-03-05T06:03:05.049Z,71.07
2024-03-05T06:05:36.445Z,62.00
2024-03-05T06:08:04.965Z,63.13
2024-03-05T06:10:31.897Z,61.35
2024-03-05T06:12:58.418Z,70.50
2024-03-05T06:15:25.123Z,59.60
2024-03-05T06:17:52.813Z,61.42
2024-03-05T06:20:19.456Z,64.15
2024-03-05T06:22:46.612Z,61.80
2024-03-05T06:25:17.384Z,51.67
2024-03-05T06:27:43.912Z,78.68
2024-03-05T06:30:16.418Z,65.25
2024-03-05T06:32:47.603Z,70.70
2024-03-05T06:35:19.975Z,59.58
2024-03-05T06:37:47.946Z,60.60
2024-03-05T06:40:17.498Z,65.97
2024-03-05T06:42:52.885Z,73.82
2024-03-05T06:45:28.274Z,64.70
2024-03-05T06:48:11.423Z,75.75
2024-03-05T06:50:43.472Z,55.80
2024-03-05T06:53:30.583Z,64.80
2024-03-05T06:56:16.486Z,71.63
2024-03-05T06:58:45.874Z,59.92
2024-03-05T07:01:14.553Z,66.65
2024-03-05T07:03:43.303Z,74.75
2024-03-05T07:06:13.994Z,69.05
2024-03-05T07:08:43.401Z,67.03
2024-03-05T07:11:16.990Z,83.75
2024-03-05T07:13:48.190Z,83.43
2024-03-05T07:16:17.611Z,78.50
2024-03-05T07:18:46.019Z,74.75
2024-03-05T07:21:12.468Z,76.97
2024-03-05T07:23:41.463Z,80.80
2024-03-05T07:26:08.276Z,73.70
2024-03-05T07:28:35.063Z,68.78
2024-03-05T07:31:03.287Z,66.78
2024-03-05T07:33:31.679Z,76.03
2024-03-05T07:35:58.217Z,71.32
2024-03-05T07:38:24.622Z,71.03
2024-03-05T07:40:51.555Z,72.15
2024-03-05T07:43:18.095Z,72.55
2024-03-05T07:45:45.607Z,64.60
2024-03-05T07:48:13.565Z,64.30
2024-03-05T07:50:40.429Z,65.90
2024-03-05T07:53:07.050Z,52.40
2024-03-05T07:58:07.575Z,61.75
2024-03-05T08:00:34.607Z,66.63
2024-03-05T08:03:01.073Z,60.65
2024-03-05T08:05:27.493Z,71.10
2024-03-05T08:08:03.341Z,76.00
2024-03-05T08:10:30.180Z,73.43
2024-03-05T08:12:57.146Z,72.97
2024-03-05T08:15:28.024Z,91.43
2024-03-05T08:17:57.269Z,77.72
2024-03-05T08:20:28.078Z,72.18
2024-03-05T08:22:56.517Z,71.93
2024-03-05T08:25:24.075Z,75.60
2024-03-05T08:27:59.281Z,75.10
2024-03-05T08:30:30.862Z,70.32
2024-03-05T08:32:57.681Z,69.40
2024-03-05T08:35:26.661Z,74.45
2024-03-05T08:37:53.135Z,79.38
2024-03-05T08:40:21.845Z,65.05
2024-03-05T08:42:50.330Z,64.65
2024-03-05T08:45:23.551Z,65.22
2024-03-05T08:47:54.458Z,70.75
2024-03-05T08:50:22.250Z,65.13
2024-03-05T08:52:49.445Z,83.45
2024-03-05T08:55:18.636Z,62.72
2024-03-05T08:57:45.462Z,64.93
2024-03-05T09:00:31.264Z,72.18
2024-03-05T09:03:04.620Z,65.82
2024-03-05T09:05:32.743Z,64.60
2024-03-05T09:07:59.309Z,59.60
2024-03-05T09:10:25.827Z,73.40
2024-03-05T09:12:52.380Z,71.20
2024-03-05T09:15:18.942Z,72.53
2024-03-05T09:17:45.397Z,71.93
2024-03-05T09:20:18.536Z,58.13
2024-03-05T09:22:46.740Z,62.05
2024-03-05T09:25:15.423Z,73.68
2024-03-05T09:27:43.393Z,77.20
2024-03-05T09:30:14.970Z,63.47
2024-03-05T09:32:42.792Z,63.40
2024-03-05T09:35:10.849Z,61.17
2024-03-05T09:37:37.898Z,74.35
2024-03-05T09:40:07.751Z,68.40
2024-03-05T09:42:38.091Z,64.43
2024-03-05T09:45:07.645Z,68.82
2024-03-05T09:47:37.386Z,67.18
2024-03-05T09:50:05.816Z,62.17
2024-03-05T09:52:34.002Z,63.67
2024-03-05T09:55:01.671Z,57.00
2024-03-05T09:57:30.110Z,71.80
2024-03-05T09:59:56.987Z,62.17
2024-03-05T10:02:26.582Z,67.90
2024-03-05T10:05:00.374Z,56.38
2024-03-05T10:07:28.376Z,66.20
2024-03-05T10:10:05.074Z,67.28
2024-03-05T10:12:31.506Z,71.55
2024-03-05T10:15:11.740Z,61.88
2024-03-05T10:17:45.732Z,64.65
2024-03-05T10:20:33.110Z,67.20
2024-03-05T10:23:02.866Z,69.15
2024-03-05T10:25:31.263Z,61.55
2024-03-05T10:27:57.893Z,74.85
2024-03-05T10:30:37.663Z,65.32
2024-03-05T10:33:11.489Z,56.70
2024-03-05T10:35:39.150Z,56.60
2024-03-05T10:38:09.816Z,58.40
2024-03-05T10:40:37.850Z,58.30
2024-03-05T10:43:06.264Z,63.33
2024-03-05T10:45:42.215Z,55.58
2024-03-05T10:48:10.851Z,56.65
2024-03-05T10:50:44.853Z,68.15
2024-03-05T10:53:12.790Z,58.33
2024-03-05T10:55:40.364Z,51.13
2024-03-05T10:58:15.371Z,55.55
2024-03-05T11:00:47.476Z,63.40
2024-03-05T11:03:18.141Z,50.75
2024-03-05T11:05:53.249Z,45.08
2024-03-05T11:08:22.367Z,46.95
2024-03-05T11:10:54.672Z,48.13
2024-03-05T11:13:22.489Z,51.63
2024-03-05T11:15:50.445Z,44.70
2024-03-05T11:18:34.121Z,49.83
2024-03-05T11:21:11.707Z,54.78
2024-03-05T11:23:55.251Z,43.60
2024-03-05T11:26:27.633Z,42.60
2024-03-05T11:29:17.918Z,28.63
2024-03-05T11:31:48.098Z,30.25
2024-03-05T11:34:14.778Z,34.13
2024-03-05T11:36:41.362Z,37.55
2024-03-05T11:39:10.575Z,30.02
2024-03-05T11:41:39.014Z,31.90
2024-03-05T11:44:06.067Z,32.45
2024-03-05T11:46:44.392Z,32.60
2024-03-05T11:49:11.796Z,36.28
2024-03-05T11:51:40.622Z,28.58
2024-03-05T11:54:09.649Z,33.75
2024-03-05T11:56:37.590Z,29.20
2024-03-05T11:59:04.394Z,33.45
2024-03-05T12:01:31.454Z,28.08
2024-03-05T12:04:08.424Z,31.77
2024-03-05T12:06:42.323Z,29.20
2024-03-05T12:09:22.310Z,33.38
2024-03-05T12:12:04.983Z,25.05
2024-03-05T12:14:35.776Z,24.85
2024-03-05T12:17:07.957Z,25.75
2024-03-05T12:19:35.746Z,26.50
2024-03-05T12:22:02.573Z,24.45
2024-03-05T12:24:29.737Z,24.35
2024-03-05T12:26:57.376Z,23.30
2024-03-05T12:29:42.598Z,23.38
2024-03-05T12:32:12.284Z,23.20
2024-03-05T12:34:43.973Z,26.15
2024-03-05T12:37:11.888Z,22.98
2024-03-05T12:39:41.100Z,29.70
2024-03-05T12:42:10.806Z,22.50
2024-03-05T12:44:37.315Z,21.42
2024-03-05T12:47:12.095Z,20.80
2024-03-05T12:49:45.357Z,20.10
2024-03-05T12:52:23.859Z,18.02
2024-03-05T12:55:10.866Z,18.25
2024-03-05T12:57:37.593Z,23.00
2024-03-05T13:00:13.650Z,24.83
2024-03-05T13:02:40.905Z,19.88
2024-03-05T13:05:09.212Z,14.40
2024-03-05T13:07:36.642Z,20.73
2024-03-05T13:10:12.052Z,15.85
2024-03-05T13:12:39.788Z,16.83
2024-03-05T13:15:07.159Z,25.38
2024-03-05T13:17:33.600Z,26.73
2024-03-05T13:20:00.030Z,24.15
2024-03-05T13:22:26.463Z,24.08
2024-03-05T13:24:55.730Z,17.88
2024-03-05T13:27:22.605Z,19.65
2024-03-05T13:29:51.441Z,17.60
2024-03-05T13:32:20.418Z,19.00
2024-03-05T13:34:46.813Z,22.33
2024-03-05T13:37:13.314Z,19.40
2024-03-05T13:39:45.480Z,21.73
2024-03-05T13:42:11.948Z,19.88
2024-03-05T13:44:39.229Z,16.98
2024-03-05T13:47:06.196Z,16.33
2024-03-05T13:49:32.609Z,22.33
2024-03-05T13:51:59.079Z,19.48
2024-03-05T13:54:25.528Z,19.02
2024-03-05T13:56:52.097Z,19.20
2024-03-05T13:59:18.658Z,18.35
2024-03-05T14:01:45.108Z,22.48
2024-03-05T14:04:11.645Z,23.33
2024-03-05T14:06:42.023Z,22.30
2024-03-05T14:09:11.924Z,22.88
2024-03-05T14:11:41.092Z,25.13
2024-03-05T14:14:07.850Z,20.65
2024-03-05T14:16:39.880Z,21.13
2024-03-05T14:19:06.701Z,23.60
2024-03-05T14:21:33.255Z,21.85
2024-03-05T14:23:59.656Z,19.27
2024-03-05T14:26:26.331Z,19.67
2024-03-05T14:28:53.184Z,17.05
2024-03-05T14:31:20.404Z,24.00
2024-03-05T14:33:48.056Z,23.33
2024-03-05T14:36:15.399Z,20.17
2024-03-05T14:38:43.347Z,19.15
2024-03-05T14:41:10.925Z,22.08
2024-03-05T14:43:40.350Z,18.95
2024-03-05T14:46:07.803Z,20.73
2024-03-05T14:48:34.594Z,19.33
2024-03-05T14:51:01.424Z,20.88
2024-03-05T14:53:28.485Z,23.02
2024-03-05T14:55:55.155Z,22.70
2024-03-05T14:58:23.815Z,21.75
2024-03-05T15:00:50.433Z,20.67
2024-03-05T15:03:18.806Z,25.88
2024-03-05T15:05:45.920Z,22.38
2024-03-05T15:08:12.389Z,24.77
2024-03-05T15:10:39.285Z,28.33
2024-03-05T15:13:07.555Z,19.67
2024-03-05T15:15:33.998Z,23.10
2024-03-05T15:18:01.836Z,27.65
2024-03-05T15:20:28.442Z,19.05
2024-03-05T15:22:54.908Z,23.00
2024-03-05T15:25:22.104Z,22.88
2024-03-05T15:27:57.126Z,24.63
2024-03-05T15:30:32.791Z,20.77
2024-03-05T15:33:00.229Z,19.42
2024-03-05T15:35:29.293Z,19.48
2024-03-05T15:37:59.849Z,19.17
2024-03-05T15:40:27.404Z,25.73
2024-03-05T15:42:56.382Z,20.17
2024-03-05T15:45:26.329Z,21.27
2024-03-05T15:47:55.628Z,23.00
2024-03-05T15:50:24.018Z,27.27
2024-03-05T15:52:57.582Z,20.67
2024-03-05T15:55:26.255Z,23.58
2024-03-05T15:58:02.538Z,23.83
2024-03-05T16:00:38.473Z,20.40
2024-03-05T16:03:06.221Z,25.75
2024-03-05T16:05:52.431Z,23.63
2024-03-05T16:08:27.370Z,23.73
2024-03-05T16:10:55.527Z,23.58
2024-03-05T16:13:23.200Z,21.90
2024-03-05T16:15:50.485Z,25.98
2024-03-05T16:18:17.227Z,23.42
2024-03-05T16:20:44.344Z,21.20
2024-03-05T16:23:11.592Z,29.65
2024-03-05T16:25:43.047Z,19.98
2024-03-05T16:28:10.839Z,24.60
2024-03-05T16:30:38.370Z,25.05
2024-03-05T16:33:05.899Z,21.85
2024-03-05T16:35:36.767Z,22.45
2024-03-05T16:38:07.870Z,20.05
2024-03-05T16:40:38.658Z,18.60
2024-03-05T16:43:06.806Z,19.77
2024-03-05T16:45:34.740Z,19.30
2024-03-05T16:48:01.725Z,25.65
2024-03-05T16:50:30.395Z,22.90
2024-03-05T16:52:58.771Z,24.73
2024-03-05T16:55:27.191Z,21.20
2024-03-05T16:57:55.670Z,26.17
2024-03-05T17:00:32.413Z,21.77
2024-03-05T17:03:12.545Z,25.05
2024-03-05T17:05:41.614Z,24.05
2024-03-05T17:08:14.989Z,26.73
2024-03-05T17:10:43.825Z,25.83
2024-03-05T17:13:18.490Z,23.92
2024-03-05T17:15:52.706Z,26.00
2024-03-05T17:18:20.419Z,27.75
2024-03-05T17:20:46.878Z,34.17
2024-03-05T17:23:20.632Z,27.70
2024-03-05T17:25:48.800Z,24.52
2024-03-05T17:28:15.365Z,25.67
2024-03-05T17:30:44.915Z,24.35
2024-03-05T17:33:14.965Z,26.70
2024-03-05T17:35:42.482Z,24.73
2024-03-05T17:38:11.217Z,27.05
2024-03-05T17:40:38.287Z,27.33
2024-03-05T17:43:05.200Z,22.98
2024-03-05T17:45:32.745Z,23.00
2024-03-05T17:48:02.274Z,22.08
2024-03-05T17:50:29.056Z,28.20
2024-03-05T17:52:56.201Z,23.60
2024-03-05T17:55:22.708Z,26.33
2024-03-05T17:57:52.025Z,27.38
2024-03-05T18:00:28.961Z,25.05
2024-03-05T18:02:57.421Z,27.95
2024-03-05T18:05:28.851Z,31.77
2024-03-05T18:07:55.602Z,29.40
2024-03-05T18:10:23.957Z,29.85
2024-03-05T18:12:51.213Z,30.27
2024-03-05T18:15:20.649Z,26.75
2024-03-05T18:17:51.762Z,23.55
2024-03-05T18:20:20.822Z,21.90
2024-03-05T18:22:48.625Z,22.77
2024-03-05T18:25:17.809Z,25.58
2024-03-05T18:27:58.029Z,27.83
2024-03-05T18:30:42.970Z,26.58
2024-03-05T18:33:12.116Z,29.42
2024-03-05T18:35:41.034Z,28.42
2024-03-05T18:38:20.424Z,27.50
2024-03-05T18:40:54.512Z,29.10
2024-03-05T18:43:22.271Z,29.77
2024-03-05T18:45:50.463Z,39.83
2024-03-05T18:48:17.038Z,25.75
2024-03-05T18:50:44.355Z,26.25
2024-03-05T18:53:12.279Z,24.52
2024-03-05T18:55:38.737Z,21.63
2024-03-05T18:58:07.871Z,22.08
2024-03-05T19:00:35.172Z,22.83
2024-03-05T19:03:02.054Z,18.40
2024-03-05T19:05:28.743Z,19.70
2024-03-05T19:07:55.260Z,26.45
2024-03-05T19:10:21.809Z,23.13
2024-03-05T19:12:48.824Z,25.27
2024-03-05T19:15:18.437Z,22.38
2024-03-05T19:17:48.461Z,25.15
2024-03-05T19:20:15.474Z,22.88
2024-03-05T19:22:42.478Z,22.00
2024-03-05T19:25:11.801Z,22.15
2024-03-05T19:27:39.681Z,29.13
2024-03-05T19:30:11.416Z,25.92
2024-03-05T19:32:41.556Z,23.00
2024-03-05T19:35:12.640Z,20.40
2024-03-05T19:37:50.763Z,15.80
2024-03-05T19:40:18.708Z,17.40
2024-03-05T19:42:57.172Z,22.42
2024-03-05T19:45:24.884Z,17.95
2024-03-05T19:47:51.898Z,20.50
2024-03-05T19:50:19.139Z,17.50
2024-03-05T19:52:49.165Z,19.65
2024-03-05T19:55:16.089Z,18.83
2024-03-05T19:57:43.949Z,18.75
2024-03-05T20:00:24.041Z,24.17
2024-03-05T20:02:50.773Z,25.92
2024-03-05T20:05:18.037Z,26.88
2024-03-05T20:07:45.387Z,32.85
2024-03-05T20:10:12.325Z,21.73
2024-03-05T20:12:39.254Z,21.83
2024-03-05T20:15:09.928Z,17.33
2024-03-05T20:17:39.508Z,16.25
2024-03-05T20:20:06.801Z,21.75
2024-03-05T20:22:35.288Z,27.27
2024-03-05T20:25:01.704Z,23.33
2024-03-05T20:27:29.090Z,41.75
2024-03-05T20:29:56.627Z,39.97
2024-03-05T20:32:25.565Z,36.13
2024-03-05T20:34:52.172Z,34.92
2024-03-05T20:37:21.066Z,26.02
2024-03-05T20:39:50.745Z,23.58
2024-03-05T20:42:17.279Z,19.77
2024-03-05T20:44:43.719Z,23.02
2024-03-05T20:47:10.224Z,23.25
2024-03-05T20:49:36.764Z,22.25
2024-03-05T20:52:03.273Z,23.42
2024-03-05T20:54:29.628Z,23.13
2024-03-05T20:56:56.998Z,29.23
2024-03-05T20:59:26.220Z,28.50
2024-03-05T21:01:54.139Z,28.73
2024-03-05T21:04:20.616Z,20.98
2024-03-05T21:06:47.148Z,58.97
2024-03-05T21:09:14.404Z,43.17
2024-03-05T21:11:41.072Z,29.25
2024-03-05T21:14:08.425Z,23.40
2024-03-05T21:16:35.008Z,21.35
2024-03-05T21:19:03.922Z,21.75
2024-03-05T21:21:34.782Z,20.33
2024-03-05T21:24:01.930Z,18.08
2024-03-05T21:29:01.115Z,28.92
2024-03-05T21:31:29.893Z,26.17
2024-03-05T21:33:56.399Z,21.85
2024-03-05T21:36:23.578Z,22.45
2024-03-05T21:38:50.050Z,16.17
2024-03-05T21:41:16.622Z,15.80
2024-03-05T21:43:43.108Z,18.98
2024-03-05T21:46:09.605Z,19.55
2024-03-05T21:48:36.079Z,17.25
2024-03-05T21:51:09.202Z,20.27
2024-03-05T21:53:38.764Z,23.70
2024-03-05T21:56:05.497Z,22.27
2024-03-05T21:58:31.889Z,24.90
2024-03-05T22:00:58.270Z,21.05
2024-03-05T22:03:24.677Z,20.88
2024-03-05T22:05:51.046Z,21.13
2024-03-05T22:08:17.495Z,19.92
2024-03-05T22:10:43.995Z,23.38
2024-03-05T22:13:10.428Z,21.55
2024-03-05T22:15:36.810Z,19.42
2024-03-05T22:18:04.954Z,16.60
2024-03-05T22:20:31.379Z,16.42
2024-03-05T22:22:57.877Z,16.50
2024-03-05T22:25:24.551Z,19.67
2024-03-05T22:27:51.844Z,22.38
2024-03-05T22:30:18.227Z,17.80
2024-03-05T22:32:44.725Z,22.98
2024-03-05T22:35:11.425Z,21.13
2024-03-05T22:37:41.561Z,16.35
2024-03-05T22:40:09.674Z,18.95
2024-03-05T22:42:36.163Z,20.58
2024-03-05T22:45:03.941Z,15.93
2024-03-05T22:47:30.392Z,16.38
2024-03-05T22:49:56.879Z,19.27
2024-03-05T22:52:23.289Z,16.25
2024-03-05T22:54:49.816Z,15.77
2024-03-05T22:57:16.270Z,18.48
2024-03-05T22:59:42.677Z,21.67
2024-03-05T23:02:09.235Z,16.38
2024-03-05T23:04:35.781Z,17.08
2024-03-05T23:07:02.249Z,23.00
2024-03-05T23:09:28.808Z,17.60
2024-03-05T23:11:55.385Z,16.30
2024-03-05T23:14:21.833Z,17.25
2024-03-05T23:16:49.736Z,16.65
2024-03-05T23:19:16.350Z,16.42
2024-03-05T23:21:42.766Z,18.38
2024-03-05T23:24:10.189Z,16.85
2024-03-05T23:26:36.713Z,19.63
2024-03-05T23:29:03.224Z,17.40
2024-03-05T23:31:29.868Z,20.80
2024-03-05T23:33:56.451Z,17.55
2024-03-05T23:36:22.903Z,15.93
2024-03-05T23:38:49.298Z,15.32
2024-03-05T23:41:24.760Z,17.92
2024-03-05T23:43:58.331Z,21.27
2024-03-05T23:46:24.803Z,15.55
2024-03-05T23:48:51.199Z,17.10
2024-03-05T23:51:17.692Z,15.32
2024-03-05T23:53:44.143Z,15.93
2024-03-05T23:56:10.704Z,18.77
2024-03-05T23:58:38.676Z,17.08
